AirNav   Air Wisconsin pilot careers
 
 535 users online  

92OR Falcon Point Heliport
West Linn, Oregon, USA

GOING TO WEST LINN?


FAA INFORMATION EFFECTIVE 06 DECEMBER 2018

Location

FAA Identifier: 92OR
Lat/Long: 45-20-11.4330N / 122-39-53.3330W
45-20.190550N / 122-39.888883W
45.3365092 / -122.6648147
(estimated)
Elevation: 400 ft. / 122 m (estimated)
Variation: 19E (1985)
From city: 1 mile NE of WEST LINN, OR
Time zone: UTC -8 (UTC -7 during Daylight Saving Time)
Zip code: 97068

Heliport Operations

Heliport use: Private use. Permission required prior to landing
Activation date: 08/1987
Control tower: no
ARTCC: SEATTLE CENTER
FSS: MC MINNVILLE FLIGHT SERVICE STATION
Attendance: DAYLIGHT HOURS
Wind indicator: WINDMILL NW END OF RWY.
Segmented circle: no

Heliport Communications

WX ASOS at UAO (7 nm SW): PHONE 503-678-3011
WX ASOS at PDX (15 nm N): PHONE (503) 493-7687
WX ASOS at TTD (17 nm NE): 135.625 (503-492-2887)
WX ASOS at VUO (17 nm N): 135.125 (360-696-1280)
WX ASOS at HIO (17 nm NW): PHONE 503-640-2984

Nearby radio navigation aids

VOR radial/distance  VOR name  Freq  Var
UBGr073/13.3NEWBERG VOR/DME117.4021E
BTGr166/24.9BATTLE GROUND VORTAC116.6021E

 
NDB name  Hdg/Dist  Freq  Var  ID
BANKS122/23.835616EPND .--. -. -..

Heliport Services

Runway Information

Helipad H1

Dimensions: 220 x 140 ft. / 67 x 43 m
Surface: dirt
Traffic pattern: leftleft

Heliport Ownership and Management from official FAA records

Ownership: Privately-owned
Owner: EM & M LLC
25130 PETE'S MT. ROAD
WEST LINN, OR 97068
Phone (512) 944-6331
Manager: CHRISTOPHER HATTASCH
25130 PETE'S MT. ROAD
WEST LINN, OR 97068
Phone (512) 944-6331

Additional Remarks

FOR CD CTC PORTLAND APCH AT 503-493-7545.

Instrument Procedures

There are no published instrument procedures at 92OR.

Some nearby airports with instrument procedures:

KUAO - Aurora State Airport (7 nm SW)
KPDX - Portland International Airport (15 nm N)
KTTD - Portland-Troutdale Airport (17 nm NE)
KVUO - Pearson Field Airport (17 nm N)
KHIO - Portland-Hillsboro Airport (17 nm NW)
 
Loc | Ops | Rwys | IFR | FBO | Links
Com | Nav | Svcs | Stats | Notes


 
Area around 92OR (Falcon Point Heliport)
 
Road maps at: MapQuest Bing Google
 
Aerial photo
No photo
 
Sectional chart

 
Airport distance calculator
Flying to Falcon Point Heliport? Find the distance to fly.

From to 92OR

Sunrise and sunset
Times for 10-Dec-2018
 Local
(UTC-8)
 Zulu
(UTC)
Morning civil twilight07:0615:06
Sunrise07:4015:40
Sunset16:2700:27
Evening civil twilight17:0101:01

Current date and time
Zulu (UTC)  11-Dec-2018 05:58:26
Local (UTC-8)  10-Dec-2018 21:58:26
 
METAR
KUAO 
7nm SW 
110553Z AUTO 12003KT 1 1/4SM BR OVC003 06/06 A3026 RMK AO2 SLP248 T00610056 10078 20061 56009
KPDX 
15nm N 
110553Z 11007KT 10SM FEW009 FEW019 BKN100 OVC250 05/04 A3027 RMK AO2 SLP249 T00500039 10061 20050 56008
KTTD 
17nm NE 
110553Z AUTO 09007KT 10SM OVC100 04/03 A3027 RMK AO2 SLP249 T00440033 10056 20044 57008
KVUO 
17nm N 
110553Z AUTO 13004KT 10SM SCT008 BKN024 OVC095 05/04 A3026 RMK AO2 SLP246 T00500039 10061 20050 56009
KHIO 
18nm NW 
110553Z AUTO 00000KT 1/4SM R13R/1600V1800FT FG VV002 06/05 A3025 RMK AO2 SLP243 T00560050 10056 20056 57010
TAF
KUAO 
7nm SW 
110540Z 1106/1206 00000KT 1/4SM FG BKN002 OVC050 TEMPO 1106/1110 1SM BR FM111000 18008KT 2SM -RA BR BKN007 OVC060 FM111500 18011KT 3SM -RA BKN015 OVC040 FM112100 18012G22KT 2SM -RA BR BKN020 OVC040 FM120300 22012KT 5SM -RADZ BKN015 OVC030
KPDX 
15nm N 
110540Z 1106/1206 11008KT P6SM FEW011 BKN020 OVC100 FM111000 12012KT P6SM -RA BKN030 OVC060 FM111300 13013KT 5SM -RA BKN025 OVC040 FM111900 18015G26KT 3SM -RA BR BKN025 OVC040 FM120300 25012KT 5SM -RADZ BKN015 OVC030
KTTD 
17nm NE 
110540Z 1106/1206 09008KT P6SM FEW011 BKN020 OVC100 FM111000 11013KT P6SM -RA BKN030 OVC060 FM111300 11013KT 5SM -RA BKN025 OVC040 FM111900 19011G20KT 3SM -RA BR BKN025 OVC040 FM120300 24008KT 5SM -RADZ BKN015 OVC030
KHIO 
18nm NW 
110540Z 1106/1206 00000KT 1/4SM FG VV002 TEMPO 1106/1110 1SM BR FM111000 16006KT 1SM -RA BKN005 OVC060 FM111500 18011KT 2SM -RA BKN015 OVC040 FM112100 18012G22KT 2SM -RA BR BKN020 OVC040 FM120300 22012KT 5SM -RADZ BKN015 OVC030
NOTAMs
Click for the latest NOTAMs
NOTAMs are issued by the DoD/FAA and will open in a separate window not controlled by AirNav.

 

 
 

Would you like to see your business listed on this page?

 If your business provides an interesting product or service to pilots, flight crews, aircraft, or users of the Falcon Point Heliport, you should consider listing it here.  To start the listing process, click on the button below
 
Add a business
 

Other Pages about Falcon Point Heliport

Update a link
 
Copyright © AirNav, LLC. All rights reserved. Privacy Policy  Contact